createdAt,value
2018-02-27T00:00:20.483Z,0
2018-02-27T00:01:01.004Z,0
2018-02-27T00:01:41.570Z,0
2018-02-27T00:02:22.026Z,0
2018-02-27T00:03:02.535Z,0
2018-02-27T00:03:43.044Z,0
2018-02-27T00:04:23.680Z,0
2018-02-27T00:05:04.214Z,0
2018-02-27T00:05:44.777Z,0
2018-02-27T00:06:25.268Z,0
2018-02-27T00:07:05.775Z,0
2018-02-27T00:07:46.292Z,0
2018-02-27T00:08:26.809Z,0
2018-02-27T00:09:07.337Z,0
2018-02-27T00:09:47.859Z,0
2018-02-27T00:10:28.376Z,0
2018-02-27T00:11:08.909Z,0
2018-02-27T00:11:49.545Z,0
2018-02-27T00:12:30.054Z,0
2018-02-27T00:13:10.559Z,0
2018-02-27T00:13:51.075Z,0
2018-02-27T00:14:31.603Z,0
2018-02-27T00:15:12.119Z,0
2018-02-27T00:15:52.642Z,0
2018-02-27T00:16:33.146Z,0
2018-02-27T00:17:13.650Z,0
2018-02-27T00:17:54.162Z,0
2018-02-27T00:18:34.699Z,0
2018-02-27T00:19:15.200Z,0
2018-02-27T00:19:55.696Z,0
2018-02-27T00:20:36.232Z,0
2018-02-27T00:21:16.751Z,0
2018-02-27T00:21:57.261Z,0
2018-02-27T00:22:37.765Z,0
2018-02-27T00:23:18.296Z,0
2018-02-27T00:23:58.819Z,0
2018-02-27T00:24:39.448Z,0
2018-02-27T00:25:19.845Z,0
2018-02-27T00:26:00.326Z,0
2018-02-27T00:26:40.874Z,0
2018-02-27T00:27:21.386Z,0
2018-02-27T00:28:01.914Z,0
2018-02-27T00:28:42.420Z,0
2018-02-27T00:29:22.936Z,0
2018-02-27T00:30:03.447Z,0
2018-02-27T00:30:43.962Z,0
2018-02-27T00:31:24.453Z,0
2018-02-27T00:32:05.147Z,0
2018-02-27T00:32:45.682Z,0
2018-02-27T00:33:26.196Z,0
2018-02-27T00:34:06.714Z,0
2018-02-27T00:34:47.232Z,0
2018-02-27T00:35:27.745Z,0
2018-02-27T00:36:08.257Z,0
2018-02-27T00:36:48.768Z,0
2018-02-27T00:37:29.308Z,0
2018-02-27T00:38:09.949Z,0
2018-02-27T00:38:50.398Z,0
2018-02-27T00:39:30.886Z,0
2018-02-27T00:40:11.377Z,0
2018-02-27T00:40:51.878Z,0
2018-02-27T00:41:32.387Z,0
2018-02-27T00:42:12.888Z,0
2018-02-27T00:42:53.431Z,0
2018-02-27T00:43:33.932Z,0
2018-02-27T00:44:14.449Z,0
2018-02-27T00:44:55.065Z,0
2018-02-27T00:45:35.565Z,0
2018-02-27T00:46:16.119Z,0
2018-02-27T00:46:56.613Z,0
2018-02-27T00:47:37.143Z,0
2018-02-27T00:48:17.666Z,0
2018-02-27T00:48:58.176Z,0
2018-02-27T00:49:38.693Z,0
2018-02-27T00:50:19.222Z,0
2018-02-27T00:50:59.725Z,0
2018-02-27T00:51:40.356Z,0
2018-02-27T00:52:20.797Z,0
2018-02-27T00:53:01.382Z,0
2018-02-27T00:53:41.888Z,0
2018-02-27T00:54:22.366Z,0
2018-02-27T00:55:02.892Z,0
2018-02-27T00:55:43.408Z,0
2018-02-27T00:56:23.915Z,0
2018-02-27T00:57:04.419Z,0
2018-02-27T00:57:44.934Z,0
2018-02-27T00:58:25.439Z,0
2018-02-27T00:59:05.951Z,0
2018-02-27T00:59:46.473Z,0
2018-02-27T01:00:26.982Z,0
2018-02-27T01:01:07.490Z,0
2018-02-27T01:01:47.995Z,0
2018-02-27T01:02:28.505Z,0
2018-02-27T01:03:09.013Z,0
2018-02-27T01:03:49.514Z,0
2018-02-27T01:04:30.048Z,0
2018-02-27T01:05:10.600Z,0
2018-02-27T01:05:51.084Z,0
2018-02-27T01:06:31.604Z,0
2018-02-27T01:07:12.093Z,0
2018-02-27T01:07:52.627Z,0
2018-02-27T01:08:33.146Z,0
2018-02-27T01:09:13.663Z,0
2018-02-27T01:09:54.185Z,0
2018-02-27T01:10:34.906Z,0
2018-02-27T01:11:15.381Z,0
2018-02-27T01:11:55.846Z,0
2018-02-27T01:12:36.475Z,0
2018-02-27T01:13:16.996Z,0
2018-02-27T01:13:57.584Z,0
2018-02-27T01:14:38.107Z,0
2018-02-27T01:15:18.613Z,0
2018-02-27T01:15:59.124Z,0
2018-02-27T01:16:39.641Z,0
2018-02-27T01:17:20.144Z,0
2018-02-27T01:18:00.659Z,0
2018-02-27T01:18:41.180Z,0
2018-02-27T01:19:21.683Z,0
2018-02-27T01:20:02.200Z,0
2018-02-27T01:20:42.737Z,0
2018-02-27T01:21:23.248Z,0
2018-02-27T01:22:03.783Z,0
2018-02-27T01:22:44.296Z,0
2018-02-27T01:23:24.810Z,0
2018-02-27T01:24:05.296Z,0
2018-02-27T01:24:45.814Z,0
2018-02-27T01:25:26.319Z,0
2018-02-27T01:26:06.826Z,0
2018-02-27T01:26:47.372Z,0
2018-02-27T01:27:27.893Z,0
2018-02-27T01:28:08.410Z,0
2018-02-27T01:28:48.911Z,0
2018-02-27T01:29:29.424Z,0
2018-02-27T01:30:09.930Z,0
2018-02-27T01:30:50.440Z,0
2018-02-27T01:31:30.958Z,0
2018-02-27T01:32:11.469Z,0
2018-02-27T01:32:51.987Z,0
2018-02-27T01:33:32.492Z,0
2018-02-27T01:34:13.060Z,0
2018-02-27T01:34:53.626Z,0
2018-02-27T01:35:34.135Z,0
2018-02-27T01:36:14.658Z,0
2018-02-27T01:36:55.156Z,0
2018-02-27T01:37:35.660Z,0
2018-02-27T01:38:16.172Z,0
2018-02-27T01:38:56.674Z,0
2018-02-27T01:39:37.188Z,0
2018-02-27T01:40:17.700Z,0
2018-02-27T01:40:58.212Z,0
2018-02-27T01:41:38.741Z,0
2018-02-27T01:42:19.232Z,0
2018-02-27T01:42:59.739Z,0
2018-02-27T01:43:40.231Z,0
2018-02-27T01:44:20.744Z,0
2018-02-27T01:45:01.258Z,0
2018-02-27T01:45:41.768Z,0
2018-02-27T01:46:22.274Z,0
2018-02-27T01:47:02.795Z,0
2018-02-27T01:47:43.316Z,0
2018-02-27T01:48:23.834Z,0
2018-02-27T01:49:04.343Z,0
2018-02-27T01:49:44.863Z,0
2018-02-27T01:50:25.374Z,0
2018-02-27T01:51:05.891Z,0
2018-02-27T01:51:46.409Z,0
2018-02-27T01:52:26.917Z,0
2018-02-27T01:53:07.423Z,0
2018-02-27T01:53:47.973Z,0
2018-02-27T01:54:28.488Z,0
2018-02-27T01:55:08.998Z,0
2018-02-27T01:55:49.526Z,0
2018-02-27T01:56:30.030Z,0
2018-02-27T01:57:10.526Z,0
2018-02-27T01:57:51.019Z,0
2018-02-27T01:58:31.537Z,0
2018-02-27T01:59:12.046Z,0
2018-02-27T01:59:52.555Z,0
2018-02-27T02:00:33.052Z,0
2018-02-27T02:01:13.642Z,0
2018-02-27T02:01:54.158Z,0
2018-02-27T02:02:34.671Z,0
2018-02-27T02:03:15.189Z,0
2018-02-27T02:03:55.700Z,0
2018-02-27T02:04:36.222Z,0
2018-02-27T02:05:16.737Z,0
2018-02-27T02:05:57.239Z,0
2018-02-27T02:06:37.751Z,0
2018-02-27T02:07:18.258Z,0
2018-02-27T02:07:58.806Z,0
2018-02-27T02:08:39.323Z,0
2018-02-27T02:09:19.828Z,0
2018-02-27T02:10:00.361Z,0
2018-02-27T02:10:40.882Z,0
2018-02-27T02:11:21.403Z,0
2018-02-27T02:12:01.935Z,0
2018-02-27T02:12:42.441Z,0
2018-02-27T02:13:23.060Z,0
2018-02-27T02:14:03.542Z,0
2018-02-27T02:14:44.051Z,0
2018-02-27T02:15:24.557Z,0
2018-02-27T02:16:05.062Z,0
2018-02-27T02:16:45.618Z,0
2018-02-27T02:17:26.135Z,0
2018-02-27T02:18:06.652Z,0
2018-02-27T02:18:47.170Z,0
2018-02-27T02:19:27.681Z,0
2018-02-27T02:20:08.199Z,0
2018-02-27T02:20:48.710Z,0
2018-02-27T02:21:29.222Z,0
2018-02-27T02:22:09.724Z,0
2018-02-27T02:22:50.245Z,0
2018-02-27T02:23:30.742Z,0
2018-02-27T02:24:11.304Z,0
2018-02-27T02:24:51.812Z,0
2018-02-27T02:25:32.318Z,0
2018-02-27T02:26:12.836Z,0
2018-02-27T02:26:53.355Z,0
2018-02-27T02:27:33.862Z,0
2018-02-27T02:28:14.368Z,0
2018-02-27T02:28:54.869Z,0
2018-02-27T02:29:35.378Z,0
2018-02-27T02:30:15.883Z,0
2018-02-27T02:32:29.164Z,0
2018-02-27T02:33:09.664Z,0
2018-02-27T02:33:50.175Z,0
2018-02-27T02:34:30.678Z,0
2018-02-27T02:35:11.210Z,0
2018-02-27T02:35:51.716Z,0
2018-02-27T02:36:32.229Z,0
2018-02-27T02:37:12.739Z,0
2018-02-27T02:37:53.250Z,0
2018-02-27T02:38:33.766Z,0
2018-02-27T02:39:14.273Z,0
2018-02-27T02:39:54.786Z,0
2018-02-27T02:40:35.303Z,0
2018-02-27T02:41:15.804Z,0
2018-02-27T02:41:56.308Z,0
2018-02-27T02:42:36.807Z,0
2018-02-27T02:43:17.315Z,0
2018-02-27T02:43:57.814Z,0
2018-02-27T02:44:38.327Z,0
2018-02-27T02:45:18.829Z,0
2018-02-27T02:45:59.344Z,0
2018-02-27T02:46:39.863Z,0
2018-02-27T02:47:20.361Z,0
2018-02-27T02:48:00.884Z,0
2018-02-27T02:48:41.394Z,0
2018-02-27T02:49:21.900Z,0
2018-02-27T02:50:02.429Z,0
2018-02-27T02:50:42.935Z,0
2018-02-27T02:51:23.454Z,0
2018-02-27T02:52:03.951Z,0
2018-02-27T02:52:44.455Z,0
2018-02-27T02:53:24.970Z,0
2018-02-27T02:54:05.475Z,0
2018-02-27T02:54:45.996Z,0
2018-02-27T02:55:26.496Z,0
2018-02-27T02:56:07.010Z,0
2018-02-27T02:56:47.498Z,0
2018-02-27T02:57:28.016Z,0
2018-02-27T02:58:08.512Z,0
2018-02-27T02:58:49.022Z,0
2018-02-27T02:59:29.536Z,0
2018-02-27T03:00:10.043Z,0
2018-02-27T03:00:50.555Z,0
2018-02-27T03:01:31.058Z,0
2018-02-27T03:02:11.568Z,0
2018-02-27T03:02:52.080Z,0
2018-02-27T03:03:32.597Z,0
2018-02-27T03:04:13.118Z,0
2018-02-27T03:04:53.615Z,0
2018-02-27T03:05:34.114Z,0
2018-02-27T03:06:14.633Z,0
2018-02-27T03:06:55.139Z,0
2018-02-27T03:07:35.646Z,0
2018-02-27T03:08:16.175Z,0
2018-02-27T03:08:56.672Z,0
2018-02-27T03:09:37.191Z,0
2018-02-27T03:10:17.697Z,0
2018-02-27T03:10:58.196Z,0
2018-02-27T03:11:38.716Z,0
2018-02-27T03:12:19.216Z,0
2018-02-27T03:12:59.734Z,0
2018-02-27T03:13:40.246Z,0
2018-02-27T03:14:20.760Z,0
2018-02-27T03:15:01.278Z,0
2018-02-27T03:15:41.765Z,0
2018-02-27T03:16:22.287Z,0
2018-02-27T03:17:02.821Z,0
2018-02-27T03:17:43.315Z,0
2018-02-27T03:18:23.834Z,0
2018-02-27T03:19:04.342Z,0
2018-02-27T03:19:44.867Z,0
2018-02-27T03:20:25.383Z,0
2018-02-27T03:21:05.887Z,0
2018-02-27T03:21:46.403Z,0
2018-02-27T03:22:26.911Z,0
2018-02-27T03:23:07.430Z,0
2018-02-27T03:23:47.939Z,0
2018-02-27T03:24:28.445Z,0
2018-02-27T03:25:08.947Z,0
2018-02-27T03:25:49.456Z,0
2018-02-27T03:26:29.967Z,0
2018-02-27T03:27:10.477Z,0
2018-02-27T03:27:50.979Z,0
2018-02-27T03:28:31.492Z,0
2018-02-27T03:29:12.008Z,0
2018-02-27T03:29:52.515Z,0
2018-02-27T03:30:33.013Z,0
2018-02-27T03:31:13.542Z,0
2018-02-27T03:31:54.034Z,0
2018-02-27T03:32:34.537Z,0
2018-02-27T03:33:15.042Z,0
2018-02-27T03:33:55.544Z,0
2018-02-27T03:34:36.051Z,0
2018-02-27T03:35:16.572Z,0
2018-02-27T03:35:57.071Z,0
2018-02-27T03:36:37.633Z,0
2018-02-27T03:37:18.140Z,0
2018-02-27T03:37:58.659Z,0
2018-02-27T03:38:39.173Z,0
2018-02-27T03:39:19.685Z,0
2018-02-27T03:40:00.207Z,0
2018-02-27T03:40:40.723Z,0
2018-02-27T03:41:22.046Z,0
2018-02-27T03:42:02.590Z,0
2018-02-27T03:42:43.087Z,0
2018-02-27T03:43:23.593Z,0
2018-02-27T03:44:04.102Z,0
2018-02-27T03:44:44.619Z,0
2018-02-27T03:45:25.121Z,0
2018-02-27T03:46:05.635Z,0
2018-02-27T03:46:46.149Z,0
2018-02-27T03:47:26.661Z,0
2018-02-27T03:48:07.175Z,0
2018-02-27T03:48:47.685Z,0
2018-02-27T03:49:28.185Z,0
2018-02-27T03:50:08.702Z,0
2018-02-27T03:50:49.214Z,0
2018-02-27T03:51:29.742Z,0
2018-02-27T03:52:10.254Z,0
2018-02-27T03:52:50.765Z,0
2018-02-27T03:53:31.274Z,0
2018-02-27T03:54:11.770Z,0
2018-02-27T03:54:52.278Z,0
2018-02-27T03:55:32.809Z,0
2018-02-27T03:56:13.308Z,0
2018-02-27T03:56:53.823Z,0
2018-02-27T03:57:34.353Z,0
2018-02-27T03:58:14.864Z,0
2018-02-27T03:58:55.365Z,0
2018-02-27T03:59:35.870Z,0
2018-02-27T04:00:16.383Z,0
2018-02-27T04:00:56.892Z,0
2018-02-27T04:01:37.403Z,0
2018-02-27T04:02:17.925Z,0
2018-02-27T04:02:58.448Z,0
2018-02-27T04:03:38.997Z,0
2018-02-27T04:04:19.486Z,0
2018-02-27T04:04:59.995Z,0
2018-02-27T04:05:40.490Z,0
2018-02-27T04:06:21.053Z,0
2018-02-27T04:07:01.574Z,0
2018-02-27T04:07:42.083Z,0
2018-02-27T04:08:22.591Z,0
2018-02-27T04:09:03.105Z,0
2018-02-27T04:09:43.604Z,0
2018-02-27T04:10:24.123Z,0
2018-02-27T04:11:04.672Z,0
2018-02-27T04:11:45.212Z,0
2018-02-27T04:12:25.713Z,0
2018-02-27T04:13:06.218Z,0
2018-02-27T04:13:46.731Z,0
2018-02-27T04:14:27.247Z,0
2018-02-27T04:15:07.762Z,0
2018-02-27T04:15:48.280Z,0
2018-02-27T04:16:28.777Z,0
2018-02-27T04:17:09.292Z,0
2018-02-27T04:17:49.796Z,0
2018-02-27T04:18:30.303Z,0
2018-02-27T04:19:10.812Z,0
2018-02-27T04:19:51.311Z,0
2018-02-27T04:20:31.812Z,0
2018-02-27T04:21:12.347Z,0
2018-02-27T04:21:52.852Z,0
2018-02-27T04:22:33.356Z,0
2018-02-27T04:23:13.866Z,0
2018-02-27T04:23:54.399Z,0
2018-02-27T04:24:34.918Z,0
2018-02-27T04:25:15.437Z,0
2018-02-27T04:25:55.944Z,0
2018-02-27T04:26:36.447Z,0
2018-02-27T04:27:16.967Z,0
2018-02-27T04:27:57.468Z,0
2018-02-27T04:28:37.974Z,0
2018-02-27T04:29:18.479Z,0
2018-02-27T04:29:58.998Z,0
2018-02-27T04:30:39.510Z,0
2018-02-27T04:31:20.043Z,0
2018-02-27T04:32:00.547Z,0
2018-02-27T04:32:41.053Z,0
2018-02-27T04:33:21.558Z,0
2018-02-27T04:34:02.074Z,0
2018-02-27T04:34:42.592Z,0
2018-02-27T04:35:23.101Z,0
2018-02-27T04:36:03.611Z,0
2018-02-27T04:36:44.110Z,0
2018-02-27T04:37:24.614Z,0
2018-02-27T04:38:05.118Z,0
2018-02-27T04:38:45.638Z,0
2018-02-27T04:39:26.133Z,0
2018-02-27T04:40:06.660Z,0
2018-02-27T04:40:47.160Z,0
2018-02-27T04:41:27.667Z,0
2018-02-27T04:42:08.175Z,0
2018-02-27T04:42:48.681Z,0
2018-02-27T04:43:29.193Z,0
2018-02-27T04:44:09.709Z,0
2018-02-27T04:44:50.215Z,0
2018-02-27T04:45:30.706Z,0
2018-02-27T04:46:11.212Z,0
2018-02-27T04:46:51.723Z,0
2018-02-27T04:47:32.228Z,0
2018-02-27T04:48:12.755Z,0
2018-02-27T04:48:53.256Z,0
2018-02-27T04:49:33.767Z,0
2018-02-27T04:50:14.302Z,0
2018-02-27T04:50:54.823Z,0
2018-02-27T04:51:35.331Z,0
2018-02-27T04:52:15.842Z,0
2018-02-27T04:52:56.361Z,0
2018-02-27T04:53:36.895Z,0
2018-02-27T04:54:17.407Z,0
2018-02-27T04:54:57.926Z,0
2018-02-27T04:55:38.449Z,0
2018-02-27T04:56:18.949Z,0
2018-02-27T04:56:59.465Z,0
2018-02-27T04:57:39.962Z,0
2018-02-27T04:58:20.478Z,0
2018-02-27T04:59:00.980Z,0
2018-02-27T04:59:41.497Z,0
2018-02-27T05:00:22.004Z,0
2018-02-27T05:01:02.510Z,0
2018-02-27T05:01:43.033Z,0
2018-02-27T05:02:23.541Z,0
2018-02-27T05:03:04.075Z,0
2018-02-27T05:03:44.557Z,0
2018-02-27T05:04:25.059Z,0
2018-02-27T05:05:05.562Z,0
2018-02-27T05:05:46.055Z,0
2018-02-27T05:06:26.559Z,0
2018-02-27T05:07:07.068Z,0
2018-02-27T05:07:47.584Z,0
2018-02-27T05:08:28.144Z,0
2018-02-27T05:09:08.648Z,0
2018-02-27T05:09:49.161Z,0
2018-02-27T05:10:29.662Z,0
2018-02-27T05:11:10.171Z,0
2018-02-27T05:11:50.692Z,0
2018-02-27T05:12:31.215Z,0
2018-02-27T05:13:11.702Z,0
2018-02-27T05:13:52.211Z,0
2018-02-27T05:14:32.723Z,0
2018-02-27T05:15:13.227Z,0
2018-02-27T05:15:53.758Z,0
2018-02-27T05:16:34.292Z,0
2018-02-27T05:17:14.795Z,0
2018-02-27T05:17:55.314Z,0
2018-02-27T05:18:35.826Z,0
2018-02-27T05:19:16.340Z,0
2018-02-27T05:19:56.849Z,0
2018-02-27T05:20:37.355Z,0
2018-02-27T05:21:17.870Z,0
2018-02-27T05:21:58.384Z,0
2018-02-27T05:22:38.903Z,0
2018-02-27T05:23:19.417Z,0
2018-02-27T05:23:59.932Z,0
2018-02-27T05:24:40.451Z,0
2018-02-27T05:25:20.960Z,0
2018-02-27T05:26:01.477Z,0
2018-02-27T05:26:42.001Z,0
2018-02-27T05:27:22.510Z,0
2018-02-27T05:28:03.023Z,0
2018-02-27T05:28:43.543Z,0
2018-02-27T05:29:24.065Z,0
2018-02-27T05:30:04.573Z,0
2018-02-27T05:30:45.085Z,0
2018-02-27T05:31:25.610Z,0
2018-02-27T05:32:06.102Z,0
2018-02-27T05:32:46.624Z,0
2018-02-27T05:33:27.144Z,0
2018-02-27T05:34:07.655Z,0
2018-02-27T05:34:48.156Z,0
2018-02-27T05:35:28.661Z,0
2018-02-27T05:36:09.173Z,0
2018-02-27T05:36:49.674Z,0
2018-02-27T05:37:30.186Z,0
2018-02-27T05:38:10.695Z,0
2018-02-27T05:38:51.199Z,0
2018-02-27T05:39:31.713Z,0
2018-02-27T05:40:12.214Z,0
2018-02-27T05:40:52.735Z,0
2018-02-27T05:41:33.261Z,0
2018-02-27T05:42:13.787Z,0
2018-02-27T05:42:54.261Z,0
2018-02-27T05:43:34.806Z,0
2018-02-27T05:44:15.325Z,4
2018-02-27T05:44:55.834Z,4
2018-02-27T05:45:36.344Z,4
2018-02-27T05:46:16.850Z,0
2018-02-27T05:46:57.363Z,0
2018-02-27T05:47:37.870Z,4
2018-02-27T05:48:18.388Z,4
2018-02-27T05:48:58.900Z,4
2018-02-27T05:49:40.045Z,4
2018-02-27T05:50:19.923Z,8
2018-02-27T05:51:00.459Z,4
2018-02-27T05:51:40.964Z,8
2018-02-27T05:52:21.512Z,4
2018-02-27T05:53:01.999Z,8
2018-02-27T05:53:42.520Z,8
2018-02-27T05:54:23.036Z,8
2018-02-27T05:55:03.549Z,12
2018-02-27T05:55:44.064Z,12
2018-02-27T05:56:24.581Z,12
2018-02-27T05:57:05.088Z,16
2018-02-27T05:57:45.613Z,16
2018-02-27T05:58:26.132Z,20
2018-02-27T05:59:06.630Z,20
2018-02-27T05:59:47.170Z,24
2018-02-27T06:00:27.658Z,24
2018-02-27T06:01:08.168Z,28
2018-02-27T06:01:48.681Z,28
2018-02-27T06:02:29.180Z,32
2018-02-27T06:03:09.694Z,36
2018-02-27T06:03:50.207Z,36
2018-02-27T06:04:30.745Z,40
2018-02-27T06:05:11.262Z,48
2018-02-27T06:05:51.769Z,48
2018-02-27T06:06:32.277Z,52
2018-02-27T06:07:12.802Z,60
2018-02-27T06:07:53.309Z,64
2018-02-27T06:08:33.814Z,68
2018-02-27T06:09:14.349Z,76
2018-02-27T06:09:54.830Z,80
2018-02-27T06:10:35.375Z,88
2018-02-27T06:11:15.878Z,92
2018-02-27T06:11:56.380Z,100
2018-02-27T06:12:36.910Z,104
2018-02-27T06:13:17.426Z,112
2018-02-27T06:13:57.930Z,116
2018-02-27T06:14:38.443Z,124
2018-02-27T06:15:18.952Z,136
2018-02-27T06:15:59.463Z,144
2018-02-27T06:16:39.979Z,152
2018-02-27T06:17:20.479Z,164
2018-02-27T06:18:00.982Z,176
2018-02-27T06:18:41.492Z,188
2018-02-27T06:19:22.008Z,200
2018-02-27T06:20:02.511Z,212
2018-02-27T06:20:43.061Z,224
2018-02-27T06:21:23.528Z,236
2018-02-27T06:22:06.582Z,244
2018-02-27T06:22:47.134Z,252
2018-02-27T06:23:28.685Z,256
2018-02-27T06:24:10.394Z,256
2018-02-27T06:24:50.917Z,260
2018-02-27T06:25:31.454Z,264
2018-02-27T06:26:11.972Z,264
2018-02-27T06:26:52.474Z,264
2018-02-27T06:27:32.990Z,260
2018-02-27T06:28:13.494Z,260
2018-02-27T06:28:54.008Z,260
2018-02-27T06:29:34.500Z,264
2018-02-27T06:30:15.012Z,264
2018-02-27T06:30:55.532Z,268
2018-02-27T06:31:36.039Z,276
2018-02-27T06:32:16.562Z,292
2018-02-27T06:32:57.082Z,300
2018-02-27T06:33:37.582Z,304
2018-02-27T06:34:18.135Z,316
2018-02-27T06:34:58.655Z,324
2018-02-27T06:35:39.159Z,340
2018-02-27T06:36:19.676Z,360
2018-02-27T06:37:00.190Z,372
2018-02-27T06:37:40.701Z,384
2018-02-27T06:38:21.211Z,400
2018-02-27T06:39:01.725Z,420
2018-02-27T06:39:42.270Z,432
2018-02-27T06:40:22.774Z,452
2018-02-27T06:41:03.286Z,476
2018-02-27T06:41:43.781Z,496
2018-02-27T06:42:24.299Z,516
2018-02-27T06:43:04.801Z,524
2018-02-27T06:43:45.308Z,552
2018-02-27T06:44:25.807Z,564
2018-02-27T06:45:06.316Z,580
2018-02-27T06:45:46.851Z,592
2018-02-27T06:46:27.455Z,612
2018-02-27T06:47:07.986Z,640
2018-02-27T06:47:48.498Z,664
2018-02-27T06:48:29.018Z,688
2018-02-27T06:49:09.522Z,716
2018-02-27T06:49:50.045Z,740
2018-02-27T06:50:30.548Z,756
2018-02-27T06:51:11.056Z,772
2018-02-27T06:51:51.568Z,792
2018-02-27T06:52:32.083Z,828
2018-02-27T06:53:12.591Z,848
2018-02-27T06:53:53.096Z,868
2018-02-27T06:54:33.593Z,888
2018-02-27T06:55:14.136Z,900
2018-02-27T06:55:54.710Z,916
2018-02-27T06:56:35.284Z,936
2018-02-27T06:57:15.810Z,952
2018-02-27T06:57:56.319Z,984
2018-02-27T06:58:36.829Z,1012
2018-02-27T06:59:17.348Z,1036
2018-02-27T06:59:57.865Z,1044
2018-02-27T07:00:38.394Z,1072
2018-02-27T07:01:18.912Z,1084
2018-02-27T07:01:59.415Z,1120
2018-02-27T07:02:39.940Z,1132
2018-02-27T07:03:20.442Z,1144
2018-02-27T07:04:01.144Z,1160
2018-02-27T07:04:41.661Z,1184
2018-02-27T07:05:22.154Z,1216
2018-02-27T07:06:02.670Z,1268
2018-02-27T07:06:43.169Z,1324
2018-02-27T07:07:23.724Z,1392
2018-02-27T07:08:04.263Z,1468
2018-02-27T07:08:44.754Z,1552
2018-02-27T07:09:25.275Z,1604
2018-02-27T07:10:05.891Z,1644
2018-02-27T07:10:46.394Z,1724
2018-02-27T07:11:26.909Z,1756
2018-02-27T07:12:07.499Z,1796
2018-02-27T07:12:48.011Z,1844
2018-02-27T07:13:28.726Z,1852
2018-02-27T07:14:09.172Z,1872
2018-02-27T07:14:49.695Z,1872
2018-02-27T07:15:30.216Z,1864
2018-02-27T07:16:10.718Z,1856
2018-02-27T07:16:51.224Z,1832
2018-02-27T07:17:31.742Z,1844
2018-02-27T07:18:12.255Z,1864
2018-02-27T07:18:52.786Z,1876
2018-02-27T07:19:33.297Z,1896
2018-02-27T07:20:13.811Z,1904
2018-02-27T07:20:54.299Z,1908
2018-02-27T07:21:34.818Z,1916
2018-02-27T07:22:15.338Z,1920
2018-02-27T07:22:55.883Z,1932
2018-02-27T07:23:36.398Z,1932
2018-02-27T07:24:16.936Z,1948
2018-02-27T07:24:57.460Z,1852
2018-02-27T07:25:38.008Z,1956
2018-02-27T07:26:18.528Z,1880
2018-02-27T07:26:59.077Z,1964
2018-02-27T07:27:39.584Z,1960
2018-02-27T07:28:20.131Z,1880
2018-02-27T07:29:00.660Z,1932
2018-02-27T07:29:41.168Z,2060
2018-02-27T07:30:21.679Z,2080
2018-02-27T07:31:02.193Z,2076
2018-02-27T07:31:42.708Z,2084
2018-02-27T07:32:23.233Z,2100
2018-02-27T07:33:03.741Z,2116
2018-02-27T07:33:44.247Z,2140
2018-02-27T07:34:24.805Z,2156
2018-02-27T07:35:05.315Z,2176
2018-02-27T07:35:45.830Z,2208
2018-02-27T07:36:26.370Z,2076
2018-02-27T07:37:06.845Z,2256
2018-02-27T07:37:47.361Z,2236
2018-02-27T07:38:27.865Z,2144
2018-02-27T07:39:08.378Z,2164
2018-02-27T07:39:48.898Z,2224
2018-02-27T07:40:29.405Z,2256
2018-02-27T07:41:09.910Z,2264
2018-02-27T07:41:50.414Z,2276
2018-02-27T07:42:30.928Z,2296
2018-02-27T07:43:11.462Z,2316
2018-02-27T07:43:51.989Z,2328
2018-02-27T07:44:32.509Z,2348
2018-02-27T07:45:13.032Z,2376
2018-02-27T07:45:53.553Z,2400
2018-02-27T07:46:34.088Z,2420
2018-02-27T07:47:14.703Z,2444
2018-02-27T07:47:55.250Z,2472
2018-02-27T07:48:35.711Z,2492
2018-02-27T07:49:16.234Z,2516
2018-02-27T07:49:56.745Z,2536
2018-02-27T07:50:37.264Z,2560
2018-02-27T07:51:17.769Z,2580
2018-02-27T07:51:58.287Z,2592
2018-02-27T07:52:38.796Z,2604
2018-02-27T07:53:19.305Z,2612
2018-02-27T07:53:59.919Z,2628
2018-02-27T07:54:40.433Z,2648
2018-02-27T07:55:20.938Z,2668
2018-02-27T07:56:01.446Z,2688
2018-02-27T07:56:41.981Z,2704
2018-02-27T07:58:57.115Z,2736
2018-02-27T07:59:37.595Z,2756
2018-02-27T08:00:18.101Z,2768
2018-02-27T08:00:58.640Z,2776
2018-02-27T08:01:39.128Z,2780
2018-02-27T08:02:19.694Z,2788
2018-02-27T08:03:00.218Z,2784
2018-02-27T08:03:40.804Z,2780
2018-02-27T08:04:21.299Z,2792
2018-02-27T08:05:01.826Z,2792
2018-02-27T08:05:42.315Z,2780
2018-02-27T08:06:22.833Z,2788
2018-02-27T08:07:03.371Z,2776
2018-02-27T08:07:43.904Z,2768
2018-02-27T08:08:24.428Z,2740
2018-02-27T08:09:05.020Z,2756
2018-02-27T08:09:45.535Z,2760
2018-02-27T08:10:26.062Z,2764
2018-02-27T08:11:06.567Z,2768
2018-02-27T08:11:47.062Z,2772
2018-02-27T08:12:27.605Z,2764
2018-02-27T08:13:08.108Z,2768
2018-02-27T08:13:48.660Z,2768
2018-02-27T08:14:29.126Z,2584
2018-02-27T08:15:09.612Z,2660
2018-02-27T08:15:50.126Z,2760
2018-02-27T08:16:30.610Z,2776
2018-02-27T08:17:11.122Z,2664
2018-02-27T08:17:51.629Z,2572
2018-02-27T08:18:32.151Z,2612
2018-02-27T08:19:12.669Z,2804
2018-02-27T08:19:53.165Z,2812
2018-02-27T08:20:33.688Z,2900
2018-02-27T08:21:14.201Z,2960
2018-02-27T08:21:54.732Z,2976
2018-02-27T08:22:35.225Z,2856
2018-02-27T08:23:15.710Z,2880
2018-02-27T08:23:56.220Z,2888
2018-02-27T08:24:36.743Z,2844
2018-02-27T08:25:17.301Z,2812
2018-02-27T08:25:57.782Z,2808
2018-02-27T08:26:38.327Z,2820
2018-02-27T08:27:18.782Z,2856
2018-02-27T08:27:59.267Z,2736
2018-02-27T08:28:39.775Z,2820
2018-02-27T08:29:20.296Z,2804
2018-02-27T08:30:00.844Z,2888
2018-02-27T08:30:41.350Z,2984
2018-02-27T08:31:21.889Z,3116
2018-02-27T08:32:03.323Z,3256
2018-02-27T08:32:45.359Z,3048
2018-02-27T08:33:26.312Z,3004
2018-02-27T08:34:10.351Z,2980
2018-02-27T08:34:49.784Z,2884
2018-02-27T08:35:30.296Z,2852
2018-02-27T08:36:10.817Z,2824
2018-02-27T08:36:51.321Z,2860
2018-02-27T08:37:31.834Z,2900
2018-02-27T08:38:12.328Z,2932
2018-02-27T08:38:52.831Z,2944
2018-02-27T08:39:33.360Z,3000
2018-02-27T08:40:13.838Z,2984
2018-02-27T08:40:54.349Z,2912
2018-02-27T08:41:34.846Z,2800
2018-02-27T08:42:15.350Z,2764
2018-02-27T08:42:55.869Z,2664
2018-02-27T08:43:36.411Z,2688
2018-02-27T08:44:16.952Z,2712
2018-02-27T08:44:57.443Z,2796
2018-02-27T08:45:37.971Z,2920
2018-02-27T08:46:18.507Z,2924
2018-02-27T08:46:59.009Z,2884
2018-02-27T08:47:39.547Z,2936
2018-02-27T08:48:20.079Z,2948
2018-02-27T08:49:00.581Z,2960
2018-02-27T08:49:41.093Z,2984
2018-02-27T08:50:21.606Z,2992
2018-02-27T08:51:02.122Z,3020
2018-02-27T08:51:42.620Z,3052
2018-02-27T08:52:23.123Z,3064
2018-02-27T08:53:03.653Z,3108
2018-02-27T08:53:44.242Z,3156
2018-02-27T08:54:24.770Z,3148
2018-02-27T08:55:05.279Z,3056
2018-02-27T08:55:45.789Z,2996
2018-02-27T08:56:26.308Z,2964
2018-02-27T08:57:06.816Z,2940
2018-02-27T08:57:47.303Z,2920
2018-02-27T08:58:27.820Z,2916
2018-02-27T08:59:08.325Z,2908
2018-02-27T08:59:48.825Z,2908
2018-02-27T09:00:29.353Z,2920
2018-02-27T09:01:09.864Z,2928
2018-02-27T09:01:50.425Z,2932
2018-02-27T09:02:30.889Z,2944
2018-02-27T09:03:11.437Z,2952
2018-02-27T09:03:51.954Z,2964
2018-02-27T09:04:32.453Z,3000
2018-02-27T09:05:12.954Z,3036
2018-02-27T09:05:53.465Z,3068
2018-02-27T09:06:33.978Z,3084
2018-02-27T09:07:14.490Z,3108
2018-02-27T09:07:55.042Z,3168
2018-02-27T09:08:35.564Z,3224
2018-02-27T09:09:16.103Z,3220
2018-02-27T09:09:56.612Z,3200
2018-02-27T09:10:37.118Z,3212
2018-02-27T09:11:17.628Z,3192
2018-02-27T09:11:58.143Z,3188
2018-02-27T09:12:38.640Z,3224
2018-02-27T09:13:19.171Z,3212
2018-02-27T09:13:59.652Z,3232
2018-02-27T09:14:40.236Z,3252
2018-02-27T09:15:20.657Z,3276
2018-02-27T09:16:01.224Z,3276
2018-02-27T09:16:41.740Z,3260
2018-02-27T09:17:22.250Z,3276
2018-02-27T09:18:02.793Z,3356
2018-02-27T09:18:43.302Z,3432
2018-02-27T09:19:23.852Z,3564
2018-02-27T09:20:04.378Z,3664
2018-02-27T09:20:44.875Z,3752
2018-02-27T09:21:25.397Z,3928
2018-02-27T09:22:05.895Z,4088
2018-02-27T09:22:46.410Z,4140
2018-02-27T09:23:26.921Z,4164
2018-02-27T09:24:07.427Z,4208
2018-02-27T09:24:47.942Z,4176
2018-02-27T09:25:28.488Z,4184
2018-02-27T09:26:08.984Z,4160
2018-02-27T09:26:49.478Z,4080
2018-02-27T09:27:30.004Z,4008
2018-02-27T09:28:11.116Z,4080
2018-02-27T09:28:51.366Z,4088
2018-02-27T09:29:31.891Z,4036
2018-02-27T09:30:12.394Z,4048
2018-02-27T09:30:52.897Z,4028
2018-02-27T09:31:33.417Z,3952
2018-02-27T09:32:13.938Z,3832
2018-02-27T09:32:54.447Z,3716
2018-02-27T09:33:34.987Z,3672
2018-02-27T09:34:15.478Z,3716
2018-02-27T09:34:56.001Z,3612
2018-02-27T09:35:36.507Z,3776
2018-02-27T09:36:17.016Z,3812
2018-02-27T09:36:57.523Z,3840
2018-02-27T09:37:38.033Z,3916
2018-02-27T09:38:18.550Z,3984
2018-02-27T09:38:59.053Z,4084
2018-02-27T09:39:39.558Z,4096
2018-02-27T09:40:20.063Z,4080